createdAt,value
2017-03-13T00:00:24.834Z,68.19
2017-03-13T00:01:26.071Z,68.1
2017-03-13T00:02:27.308Z,68.1
2017-03-13T00:03:28.569Z,68.29
2017-03-13T00:04:29.810Z,68.1
2017-03-13T00:05:31.067Z,68.38
2017-03-13T00:06:32.305Z,68.57
2017-03-13T00:07:33.527Z,68.48
2017-03-13T00:08:34.779Z,68.38
2017-03-13T00:09:36.091Z,68.38
2017-03-13T00:10:37.261Z,68.48
2017-03-13T00:11:38.560Z,68.38
2017-03-13T00:12:39.827Z,68.57
2017-03-13T00:13:41.053Z,68.48
2017-03-13T00:14:42.292Z,68.38
2017-03-13T00:15:43.528Z,68.48
2017-03-13T00:16:44.789Z,68.29
2017-03-13T00:17:46.021Z,68.29
2017-03-13T00:18:47.385Z,68.19
2017-03-13T00:19:48.535Z,68
2017-03-13T00:20:49.785Z,68.19
2017-03-13T00:21:51.026Z,68
2017-03-13T00:22:52.262Z,68
2017-03-13T00:23:53.560Z,68.1
2017-03-13T00:24:54.791Z,68
2017-03-13T00:25:56.076Z,67.9
2017-03-13T00:26:57.287Z,68.19
2017-03-13T00:27:58.561Z,68
2017-03-13T00:28:59.828Z,67.9
2017-03-13T00:30:01.077Z,68.19
2017-03-13T00:31:02.345Z,68.19
2017-03-13T00:32:03.587Z,68.23
2017-03-13T00:33:04.839Z,68
2017-03-13T00:34:06.074Z,68.19
2017-03-13T00:35:07.293Z,68.1
2017-03-13T00:36:08.532Z,68.29
2017-03-13T00:37:09.966Z,68
2017-03-13T00:38:11.194Z,68.1
2017-03-13T00:39:12.446Z,68.57
2017-03-13T00:40:13.680Z,68.29
2017-03-13T00:41:14.918Z,68.57
2017-03-13T00:42:16.160Z,68.29
2017-03-13T00:43:17.421Z,68.19
2017-03-13T00:44:18.666Z,68.32
2017-03-13T00:45:19.940Z,68.19
2017-03-13T00:46:21.173Z,68.1
2017-03-13T00:47:22.446Z,68.38
2017-03-13T00:48:23.683Z,68.1
2017-03-13T00:49:24.914Z,68.57
2017-03-13T00:50:26.156Z,68.1
2017-03-13T00:51:27.424Z,68.38
2017-03-13T00:52:28.653Z,68.48
2017-03-13T00:53:29.883Z,68.38
2017-03-13T00:54:31.115Z,68.29
2017-03-13T00:55:32.476Z,68.76
2017-03-13T00:56:33.955Z,68.85
2017-03-13T00:57:35.187Z,68.76
2017-03-13T00:58:36.426Z,68.38
2017-03-13T00:59:37.680Z,68.57
2017-03-13T01:00:38.923Z,68.48
2017-03-13T01:01:40.318Z,68.66
2017-03-13T01:02:41.566Z,69.13
2017-03-13T01:03:42.800Z,68.66
2017-03-13T01:04:44.055Z,68.85
2017-03-13T01:05:45.264Z,68.95
2017-03-13T01:06:46.515Z,68.85
2017-03-13T01:07:47.818Z,68.66
2017-03-13T01:08:49.046Z,68.95
2017-03-13T01:09:50.354Z,68.76
2017-03-13T01:10:51.620Z,68.85
2017-03-13T01:11:52.837Z,68.76
2017-03-13T01:12:54.064Z,68.85
2017-03-13T01:13:55.298Z,68.85
2017-03-13T01:14:56.555Z,69.23
2017-03-13T01:15:57.879Z,69.33
2017-03-13T01:16:59.047Z,69.23
2017-03-13T01:18:00.333Z,69.33
2017-03-13T01:19:01.596Z,68.95
2017-03-13T01:20:02.834Z,68.95
2017-03-13T01:21:04.234Z,69.33
2017-03-13T01:22:05.495Z,69.13
2017-03-13T01:23:06.742Z,69.71
2017-03-13T01:24:07.974Z,69.8
2017-03-13T01:25:09.240Z,69.61
2017-03-13T01:26:10.522Z,69.42
2017-03-13T01:27:11.761Z,69.42
2017-03-13T01:28:13.045Z,69.52
2017-03-13T01:29:14.354Z,69.52
2017-03-13T01:30:15.578Z,69.9
2017-03-13T01:31:16.809Z,69.8
2017-03-13T01:32:18.049Z,69.52
2017-03-13T01:33:19.284Z,69.61
2017-03-13T01:34:20.555Z,69.9
2017-03-13T01:35:21.864Z,69.71
2017-03-13T01:36:23.092Z,69.9
2017-03-13T01:37:24.321Z,69.9
2017-03-13T01:38:25.551Z,69.99
2017-03-13T01:39:26.780Z,70.09
2017-03-13T01:40:28.156Z,70.09
2017-03-13T01:41:29.371Z,69.99
2017-03-13T01:42:30.627Z,70.56
2017-03-13T01:43:31.890Z,70.56
2017-03-13T01:44:33.099Z,70.09
2017-03-13T01:45:34.344Z,70.37
2017-03-13T01:46:35.583Z,70.18
2017-03-13T01:47:36.884Z,70.18
2017-03-13T01:48:38.227Z,70.84
2017-03-13T01:49:39.554Z,70.65
2017-03-13T01:50:40.813Z,70.75
2017-03-13T01:51:42.023Z,71.13
2017-03-13T01:52:43.251Z,71.13
2017-03-13T01:53:44.498Z,71.22
2017-03-13T01:54:45.739Z,71.13
2017-03-13T01:55:46.972Z,71.41
2017-03-13T01:56:48.205Z,71.32
2017-03-13T01:57:49.778Z,70.84
2017-03-13T01:58:51.012Z,71.22
2017-03-13T01:59:52.358Z,71.95
2017-03-13T02:00:53.607Z,71.76
2017-03-13T02:01:54.849Z,71.85
2017-03-13T02:02:56.109Z,71.7
2017-03-13T02:03:57.339Z,71.57
2017-03-13T02:04:58.594Z,71.76
2017-03-13T02:05:59.976Z,71.57
2017-03-13T02:07:01.201Z,71.85
2017-03-13T02:08:02.466Z,72.04
2017-03-13T02:09:03.702Z,72.14
2017-03-13T02:10:04.895Z,72.33
2017-03-13T02:11:06.151Z,71.76
2017-03-13T02:12:07.381Z,72.14
2017-03-13T02:13:08.807Z,72.33
2017-03-13T02:14:10.020Z,72.33
2017-03-13T02:15:11.270Z,73.08
2017-03-13T02:16:12.510Z,72.61
2017-03-13T02:17:13.762Z,72.52
2017-03-13T02:18:15.011Z,72.61
2017-03-13T02:19:16.258Z,72.52
2017-03-13T02:20:17.599Z,72.61
2017-03-13T02:21:18.833Z,72.99
2017-03-13T02:22:20.067Z,72.89
2017-03-13T02:23:21.302Z,72.71
2017-03-13T02:24:22.551Z,72.52
2017-03-13T02:25:23.832Z,72.61
2017-03-13T02:26:25.071Z,73.27
2017-03-13T02:27:26.316Z,73.27
2017-03-13T02:28:27.552Z,73.18
2017-03-13T02:29:28.790Z,73.08
2017-03-13T02:30:30.065Z,73.18
2017-03-13T02:31:31.288Z,72.99
2017-03-13T02:32:32.535Z,73.18
2017-03-13T02:33:33.855Z,73.18
2017-03-13T02:34:35.086Z,73.46
2017-03-13T02:35:36.322Z,73.37
2017-03-13T02:36:37.580Z,73.37
2017-03-13T02:37:38.783Z,73.37
2017-03-13T02:38:40.212Z,73.37
2017-03-13T02:39:41.482Z,73.27
2017-03-13T02:40:42.692Z,73.18
2017-03-13T02:41:43.938Z,73.75
2017-03-13T02:42:45.175Z,73.75
2017-03-13T02:43:46.417Z,74.03
2017-03-13T02:44:47.656Z,73.75
2017-03-13T02:45:48.893Z,74.03
2017-03-13T02:46:50.145Z,74.03
2017-03-13T02:47:51.371Z,74.22
2017-03-13T02:48:52.616Z,74.22
2017-03-13T02:49:53.839Z,74.22
2017-03-13T02:50:55.100Z,74.51
2017-03-13T02:51:56.423Z,74.41
2017-03-13T02:52:57.678Z,74.51
2017-03-13T02:53:58.910Z,74.41
2017-03-13T02:55:00.146Z,74.51
2017-03-13T02:56:01.384Z,74.79
2017-03-13T02:57:02.626Z,74.98
2017-03-13T02:58:04.027Z,74.85
2017-03-13T02:59:05.234Z,74.79
2017-03-13T03:00:06.487Z,75.04
2017-03-13T03:01:07.745Z,74.95
2017-03-13T03:02:08.993Z,75.32
2017-03-13T03:03:10.224Z,75.13
2017-03-13T03:04:11.451Z,75.79
2017-03-13T03:05:12.680Z,75.79
2017-03-13T03:06:13.916Z,75.79
2017-03-13T03:07:15.203Z,76.08
2017-03-13T03:08:16.426Z,76.46
2017-03-13T03:09:17.660Z,76.36
2017-03-13T03:10:18.944Z,76.84
2017-03-13T03:11:20.258Z,76.74
2017-03-13T03:12:21.501Z,76.65
2017-03-13T03:13:22.754Z,77.03
2017-03-13T03:14:23.990Z,77.59
2017-03-13T03:15:25.252Z,77.31
2017-03-13T03:16:26.509Z,77.4
2017-03-13T03:17:27.751Z,77.5
2017-03-13T03:18:28.988Z,77.5
2017-03-13T03:19:30.247Z,77.78
2017-03-13T03:20:31.488Z,77.69
2017-03-13T03:21:32.719Z,77.88
2017-03-13T03:22:33.995Z,77.69
2017-03-13T03:23:35.237Z,77.69
2017-03-13T03:24:36.492Z,77.97
2017-03-13T03:25:37.753Z,77.88
2017-03-13T03:26:38.981Z,78.45
2017-03-13T03:27:40.445Z,77.88
2017-03-13T03:28:41.674Z,78.07
2017-03-13T03:29:42.961Z,78.35
2017-03-13T03:30:44.193Z,78.35
2017-03-13T03:31:45.417Z,77.97
2017-03-13T03:32:46.663Z,77.97
2017-03-13T03:33:47.904Z,78.45
2017-03-13T03:34:49.145Z,77.97
2017-03-13T03:35:50.441Z,78.35
2017-03-13T03:36:51.762Z,77.97
2017-03-13T03:37:53.012Z,78.16
2017-03-13T03:38:54.252Z,77.97
2017-03-13T03:39:55.489Z,77.88
2017-03-13T03:40:56.729Z,77.97
2017-03-13T03:41:57.989Z,77.88
2017-03-13T03:42:59.258Z,78.54
2017-03-13T03:44:00.488Z,78.07
2017-03-13T03:45:01.723Z,78.26
2017-03-13T03:46:02.952Z,78.54
2017-03-13T03:47:04.186Z,78.07
2017-03-13T03:48:05.416Z,78.54
2017-03-13T03:49:06.649Z,78.54
2017-03-13T03:50:07.912Z,78.83
2017-03-13T03:51:09.155Z,78.83
2017-03-13T03:52:10.390Z,79.21
2017-03-13T03:53:11.627Z,79.21
2017-03-13T03:54:12.888Z,79.17
2017-03-13T03:55:14.236Z,78.92
2017-03-13T03:56:15.510Z,79.17
2017-03-13T03:57:16.777Z,79.02
2017-03-13T03:58:18.022Z,78.79
2017-03-13T03:59:19.226Z,78.5
2017-03-13T04:00:20.602Z,79.26
2017-03-13T04:01:21.883Z,79.07
2017-03-13T04:02:23.120Z,79.11
2017-03-13T04:03:24.377Z,79.07
2017-03-13T04:04:25.671Z,79.17
2017-03-13T04:05:26.927Z,79.17
2017-03-13T04:06:28.128Z,78.88
2017-03-13T04:07:29.367Z,78.98
2017-03-13T04:08:30.610Z,78.98
2017-03-13T04:09:31.847Z,79.17
2017-03-13T04:10:33.084Z,79.07
2017-03-13T04:11:34.312Z,79.26
2017-03-13T04:12:35.574Z,78.98
2017-03-13T04:13:36.798Z,79.17
2017-03-13T04:14:38.072Z,79.17
2017-03-13T04:15:39.282Z,79.26
2017-03-13T04:16:40.512Z,78.5
2017-03-13T04:17:41.796Z,79.07
2017-03-13T04:18:43.061Z,78.88
2017-03-13T04:19:44.346Z,79.26
2017-03-13T04:20:45.563Z,78.88
2017-03-13T04:21:46.869Z,79.17
2017-03-13T04:22:48.104Z,78.79
2017-03-13T04:23:49.344Z,78.59
2017-03-13T04:24:50.583Z,78.98
2017-03-13T04:25:51.832Z,78.59
2017-03-13T04:26:53.069Z,78.69
2017-03-13T04:27:54.330Z,78.64
2017-03-13T04:28:55.575Z,78.41
2017-03-13T04:29:56.797Z,78.54
2017-03-13T04:30:58.038Z,78.26
2017-03-13T04:31:59.274Z,78.54
2017-03-13T04:33:00.523Z,77.88
2017-03-13T04:34:01.777Z,78.07
2017-03-13T04:35:03.055Z,77.88
2017-03-13T04:36:04.423Z,77.88
2017-03-13T04:37:05.675Z,77.88
2017-03-13T04:38:06.882Z,77.78
2017-03-13T04:39:08.112Z,77.78
2017-03-13T04:40:09.342Z,77.4
2017-03-13T04:41:10.630Z,76.93
2017-03-13T04:42:11.896Z,77.12
2017-03-13T04:43:13.117Z,77.03
2017-03-13T04:44:14.389Z,77.22
2017-03-13T04:45:15.609Z,76.74
2017-03-13T04:46:16.924Z,76.74
2017-03-13T04:47:18.214Z,76.93
2017-03-13T04:48:19.485Z,76.74
2017-03-13T04:49:20.693Z,77.03
2017-03-13T04:50:21.920Z,76.93
2017-03-13T04:51:23.148Z,77.03
2017-03-13T04:52:24.550Z,77.12
2017-03-13T04:53:25.778Z,77.12
2017-03-13T04:54:26.995Z,77.12
2017-03-13T04:55:28.273Z,77.59
2017-03-13T04:56:29.473Z,77.31
2017-03-13T04:57:30.727Z,77.5
2017-03-13T04:58:31.941Z,77.97
2017-03-13T04:59:33.185Z,77.78
2017-03-13T05:00:34.571Z,77.46
2017-03-13T05:01:35.832Z,77.46
2017-03-13T05:02:37.061Z,77.84
2017-03-13T05:03:38.309Z,77.65
2017-03-13T05:04:39.519Z,77.65
2017-03-13T05:05:40.776Z,77.94
2017-03-13T05:06:42.028Z,77.94
2017-03-13T05:07:43.290Z,77.88
2017-03-13T05:08:44.555Z,77.56
2017-03-13T05:09:45.808Z,77.75
2017-03-13T05:10:47.047Z,77.84
2017-03-13T05:11:48.302Z,77.56
2017-03-13T05:12:49.533Z,77.65
2017-03-13T05:13:50.766Z,78.31
2017-03-13T05:14:52.011Z,78.22
2017-03-13T05:15:53.250Z,78.31
2017-03-13T05:16:54.487Z,78.22
2017-03-13T05:17:55.761Z,78.31
2017-03-13T05:18:57.002Z,77.84
2017-03-13T05:19:58.231Z,78.41
2017-03-13T05:20:59.482Z,78.13
2017-03-13T05:22:00.691Z,78.41
2017-03-13T05:23:01.925Z,78.13
2017-03-13T05:24:03.170Z,78.31
2017-03-13T05:25:04.413Z,78.31
2017-03-13T05:26:05.667Z,78.31
2017-03-13T05:27:06.913Z,78.22
2017-03-13T05:28:08.229Z,78.41
2017-03-13T05:29:09.467Z,78.13
2017-03-13T05:30:10.704Z,78.22
2017-03-13T05:31:11.938Z,78.31
2017-03-13T05:32:13.209Z,78.41
2017-03-13T05:33:14.456Z,78.41
2017-03-13T05:34:15.715Z,78.59
2017-03-13T05:35:16.954Z,78.69
2017-03-13T05:36:18.173Z,78.59
2017-03-13T05:37:19.410Z,78.59
2017-03-13T05:38:20.637Z,78.59
2017-03-13T05:39:21.894Z,78.69
2017-03-13T05:40:23.143Z,78.88
2017-03-13T05:41:24.489Z,78.98
2017-03-13T05:42:25.762Z,78.79
2017-03-13T05:43:26.974Z,78.5
2017-03-13T05:44:28.219Z,79.26
2017-03-13T05:45:29.448Z,78.98
2017-03-13T05:46:30.683Z,79.07
2017-03-13T05:47:31.922Z,79.17
2017-03-13T05:48:33.143Z,79.55
2017-03-13T05:49:34.388Z,79.17
2017-03-13T05:50:35.609Z,78.98
2017-03-13T05:51:36.849Z,78.98
2017-03-13T05:52:38.085Z,79.07
2017-03-13T05:53:39.326Z,79.36
2017-03-13T05:54:40.734Z,79.36
2017-03-13T05:55:41.933Z,79.26
2017-03-13T05:56:43.198Z,78.69
2017-03-13T05:57:44.444Z,79.07
2017-03-13T05:58:45.675Z,79.26
2017-03-13T05:59:47.015Z,79.07
2017-03-13T06:00:48.312Z,78.88
2017-03-13T06:01:49.581Z,79.17
2017-03-13T06:02:50.830Z,78.69
2017-03-13T06:03:52.085Z,78.88
2017-03-13T06:04:53.302Z,79.17
2017-03-13T06:05:54.667Z,78.98
2017-03-13T06:06:55.936Z,78.69
2017-03-13T06:07:57.155Z,78.69
2017-03-13T06:08:58.398Z,78.69
2017-03-13T06:09:59.625Z,78.5
2017-03-13T06:11:00.919Z,78.22
2017-03-13T06:12:02.285Z,78.31
2017-03-13T06:13:03.506Z,78.41
2017-03-13T06:14:04.741Z,78.16
2017-03-13T06:15:05.988Z,77.88
2017-03-13T06:16:07.242Z,77.78
2017-03-13T06:17:08.445Z,77.69
2017-03-13T06:18:09.665Z,77.4
2017-03-13T06:19:11.005Z,77.03
2017-03-13T06:20:12.345Z,77.12
2017-03-13T06:21:13.588Z,76.84
2017-03-13T06:22:14.826Z,76.46
2017-03-13T06:23:16.086Z,76.46
2017-03-13T06:24:17.323Z,76.27
2017-03-13T06:25:18.657Z,75.17
2017-03-13T06:26:19.889Z,75.36
2017-03-13T06:27:21.125Z,74.69
2017-03-13T06:28:22.357Z,74.22
2017-03-13T06:29:23.603Z,73.84
2017-03-13T06:30:24.837Z,72.89
2017-03-13T06:31:26.218Z,72.52
2017-03-13T06:32:27.454Z,72.36
2017-03-13T06:33:28.997Z,72.27
2017-03-13T06:34:30.236Z,71.32
2017-03-13T06:35:31.478Z,71.22
2017-03-13T06:36:32.720Z,70.75
2017-03-13T06:37:34.101Z,70.18
2017-03-13T06:38:35.335Z,69.99
2017-03-13T06:39:36.569Z,69.61
2017-03-13T06:40:37.822Z,68.95
2017-03-13T06:41:39.121Z,69.13
2017-03-13T06:42:40.444Z,68.89
2017-03-13T06:43:41.752Z,68.32
2017-03-13T06:44:42.984Z,67.94
2017-03-13T06:45:44.227Z,67.65
2017-03-13T06:46:45.464Z,67.18
2017-03-13T06:47:46.722Z,66.42
2017-03-13T06:48:48.050Z,66.61
2017-03-13T06:49:49.231Z,65.85
2017-03-13T06:50:50.497Z,65.37
2017-03-13T06:51:51.739Z,65.12
2017-03-13T06:52:52.946Z,65.03
2017-03-13T06:53:54.187Z,64.65
2017-03-13T06:54:55.437Z,64.84
2017-03-13T06:55:56.733Z,63.98
2017-03-13T06:56:58.069Z,63.32
2017-03-13T06:57:59.310Z,63.6
2017-03-13T06:59:00.533Z,63.13
2017-03-13T07:00:01.776Z,62.59
2017-03-13T07:01:03.011Z,62.21
2017-03-13T07:02:04.301Z,61.45
2017-03-13T07:03:05.542Z,60.41
2017-03-13T07:04:06.799Z,59.36
2017-03-13T07:05:08.026Z,59.49
2017-03-13T07:06:09.267Z,58.63
2017-03-13T07:07:10.506Z,57.78
2017-03-13T07:08:11.753Z,57.24
2017-03-13T07:09:13.001Z,56
2017-03-13T07:10:14.305Z,55.08
2017-03-13T07:11:15.530Z,53.94
2017-03-13T07:12:16.762Z,52.82
2017-03-13T07:13:17.977Z,52.06
2017-03-13T07:14:19.248Z,51.51
2017-03-13T07:15:20.480Z,50.37
2017-03-13T07:16:21.774Z,49.51
2017-03-13T07:17:23.007Z,49.06
2017-03-13T07:18:24.260Z,48.75
2017-03-13T07:19:25.485Z,48.66
2017-03-13T07:20:26.733Z,48.02
2017-03-13T07:21:27.975Z,48.85
2017-03-13T07:22:29.206Z,48.56
2017-03-13T07:23:30.443Z,48.08
2017-03-13T07:24:31.672Z,48.66
2017-03-13T07:25:32.921Z,48.49
2017-03-13T07:26:34.180Z,48.3
2017-03-13T07:27:35.451Z,48.02
2017-03-13T07:28:36.790Z,46.89
2017-03-13T07:29:38.059Z,46.23
2017-03-13T07:30:39.339Z,45.84
2017-03-13T07:31:40.595Z,45.39
2017-03-13T07:32:41.856Z,45.1
2017-03-13T07:33:43.073Z,44.44
2017-03-13T07:34:44.340Z,43.58
2017-03-13T07:35:45.606Z,44.06
2017-03-13T07:36:46.875Z,43.96
2017-03-13T07:37:48.102Z,43.84
2017-03-13T07:38:49.342Z,44.7
2017-03-13T07:39:50.639Z,44.51
2017-03-13T07:40:51.862Z,44.63
2017-03-13T07:41:53.107Z,44.15
2017-03-13T07:42:54.346Z,43.96
2017-03-13T07:43:55.593Z,43.49
2017-03-13T07:44:56.845Z,43.03
2017-03-13T07:45:58.099Z,42.15
2017-03-13T07:46:59.339Z,42.46
2017-03-13T07:48:00.606Z,41.81
2017-03-13T07:49:01.943Z,40.76
2017-03-13T07:50:03.198Z,40.19
2017-03-13T07:51:04.428Z,39.25
2017-03-13T07:52:05.688Z,38.51
2017-03-13T07:53:07.046Z,37.74
2017-03-13T07:54:08.282Z,37.65
2017-03-13T07:55:09.532Z,37.28
2017-03-13T07:56:10.769Z,36.8
2017-03-13T07:57:12.021Z,36.23
2017-03-13T07:58:13.287Z,35.57
2017-03-13T07:59:14.565Z,34.89
2017-03-13T08:00:15.775Z,35
2017-03-13T08:01:17.059Z,34.81
2017-03-13T08:02:18.315Z,35.2
2017-03-13T08:03:19.585Z,34.16
2017-03-13T08:04:20.823Z,33.49
2017-03-13T08:05:22.079Z,33.3
2017-03-13T08:06:23.459Z,33.4
2017-03-13T08:07:24.749Z,33.19
2017-03-13T08:08:25.998Z,33.67
2017-03-13T08:09:27.247Z,34.05
2017-03-13T08:10:28.492Z,34.13
2017-03-13T08:11:29.767Z,34.42
2017-03-13T08:12:31.034Z,35.08
2017-03-13T08:13:32.364Z,35.06
2017-03-13T08:14:33.602Z,35.35
2017-03-13T08:15:34.849Z,35.74
2017-03-13T08:16:36.106Z,35.64
2017-03-13T08:17:37.344Z,36.21
2017-03-13T08:18:38.593Z,36.02
2017-03-13T08:19:40.018Z,36.12
2017-03-13T08:20:41.222Z,36.19
2017-03-13T08:21:42.500Z,36.29
2017-03-13T08:22:43.744Z,36.29
2017-03-13T08:23:45.059Z,36.39
2017-03-13T08:24:46.287Z,36.58
2017-03-13T08:25:47.584Z,36.96
2017-03-13T08:26:48.835Z,36.96
2017-03-13T08:27:50.081Z,36.48
2017-03-13T08:28:51.325Z,36.31
2017-03-13T08:29:52.572Z,36.12
2017-03-13T08:30:53.808Z,36.39
2017-03-13T08:31:55.169Z,36.77
2017-03-13T08:32:56.461Z,37.15
2017-03-13T08:33:57.696Z,37.44
2017-03-13T08:34:58.944Z,37.63
2017-03-13T08:36:00.222Z,37.34
2017-03-13T08:37:01.534Z,37.55
2017-03-13T08:38:02.784Z,37.55
2017-03-13T08:39:04.041Z,37.36
2017-03-13T08:40:05.288Z,37.19
2017-03-13T08:41:06.521Z,36.71
2017-03-13T08:42:07.772Z,36.14
2017-03-13T08:43:09.036Z,35.08
2017-03-13T08:44:10.356Z,35.47
2017-03-13T08:45:11.695Z,36.23
2017-03-13T08:46:12.944Z,35.47
2017-03-13T08:47:14.182Z,35.37
2017-03-13T08:48:15.432Z,34.99
2017-03-13T08:49:16.683Z,34.72
2017-03-13T08:50:17.934Z,34.91
2017-03-13T08:51:19.181Z,34.64
2017-03-13T08:52:20.420Z,34.56
2017-03-13T08:53:21.659Z,33.14
2017-03-13T08:54:22.968Z,32.29
2017-03-13T08:55:24.337Z,31.54
2017-03-13T08:56:25.559Z,30.12
2017-03-13T08:57:26.825Z,29.58
2017-03-13T08:58:28.068Z,27.48
2017-03-13T08:59:29.309Z,25.76
2017-03-13T09:00:30.563Z,24.43
2017-03-13T09:01:31.831Z,23.67
2017-03-13T09:02:33.071Z,22.71
2017-03-13T09:03:34.382Z,22.15
2017-03-13T09:04:35.624Z,20.72
2017-03-13T09:05:36.880Z,20.25
2017-03-13T09:06:38.132Z,19.38
2017-03-13T09:07:39.376Z,18.82
2017-03-13T09:08:40.628Z,18.05
2017-03-13T09:09:42.060Z,17.19
2017-03-13T09:10:43.281Z,16.9
2017-03-13T09:11:44.526Z,16.43
2017-03-13T09:12:45.775Z,15.86
2017-03-13T09:13:47.082Z,16.25
2017-03-13T09:14:48.333Z,15.58
2017-03-13T09:15:49.583Z,15
2017-03-13T09:16:50.848Z,14.42
2017-03-13T09:17:52.084Z,13.94
2017-03-13T09:18:53.326Z,13.65
2017-03-13T09:19:54.598Z,13.66
2017-03-13T09:20:55.858Z,13.18
2017-03-13T09:21:57.116Z,13.18
2017-03-13T09:22:58.367Z,12.8
2017-03-13T09:23:59.616Z,12.42
2017-03-13T09:25:00.864Z,12.23
2017-03-13T09:26:02.112Z,12.13
2017-03-13T09:27:03.370Z,12.23
2017-03-13T09:28:04.756Z,11.65
2017-03-13T09:29:06.113Z,11.27
2017-03-13T09:30:07.400Z,11.06
2017-03-13T09:31:08.645Z,11.55
2017-03-13T09:32:09.899Z,11.45
2017-03-13T09:33:11.149Z,11.16
2017-03-13T09:34:12.453Z,11.16
2017-03-13T09:35:13.775Z,11.17
2017-03-13T09:36:15.008Z,10.88
2017-03-13T09:37:16.254Z,10.58
2017-03-13T09:38:17.519Z,10.58
2017-03-13T09:39:18.761Z,10.49
2017-03-13T09:40:20.044Z,10.29
2017-03-13T09:41:21.311Z,10.49
2017-03-13T09:42:22.560Z,10.29
2017-03-13T09:43:23.825Z,10.78
2017-03-13T09:44:25.087Z,9.91
2017-03-13T09:45:26.557Z,9.63
2017-03-13T09:46:27.791Z,9.92
2017-03-13T09:47:29.050Z,8.86
2017-03-13T09:48:30.295Z,8.57
2017-03-13T09:49:31.558Z,7.89
2017-03-13T09:50:32.838Z,7.6
2017-03-13T09:51:34.171Z,8.18
2017-03-13T09:52:35.441Z,8.07
2017-03-13T09:53:36.691Z,8.84
2017-03-13T09:54:37.950Z,9.91
2017-03-13T09:55:39.206Z,10.68
2017-03-13T09:56:40.571Z,11.15
2017-03-13T09:57:41.811Z,12.12
2017-03-13T09:58:43.071Z,12.21
2017-03-13T09:59:44.338Z,13.26
2017-03-13T10:00:45.585Z,13.46
2017-03-13T10:01:46.951Z,12.98
2017-03-13T10:02:48.187Z,13.08
2017-03-13T10:03:49.444Z,13.18
2017-03-13T10:04:50.696Z,12.5
2017-03-13T10:05:51.948Z,12.5
2017-03-13T10:06:53.201Z,12.99
2017-03-13T10:07:54.495Z,12.41
2017-03-13T10:08:55.726Z,13.18
2017-03-13T10:09:56.960Z,13.46
2017-03-13T10:10:58.217Z,12.88
2017-03-13T10:11:59.466Z,12.5
2017-03-13T10:13:00.727Z,12.22
2017-03-13T10:14:01.982Z,12.41
2017-03-13T10:15:03.253Z,12.21
2017-03-13T10:16:04.523Z,12.5
2017-03-13T10:17:05.775Z,11.93
2017-03-13T10:18:07.048Z,12.04
2017-03-13T10:19:08.311Z,11.84
2017-03-13T10:20:09.559Z,11.27
2017-03-13T10:21:10.851Z,10.59
2017-03-13T10:22:12.106Z,10.2
2017-03-13T10:23:13.442Z,10.89
2017-03-13T10:24:14.746Z,10.11
2017-03-13T10:25:16.006Z,10.31
2017-03-13T10:26:17.263Z,10.31
2017-03-13T10:27:18.700Z,9.44
2017-03-13T10:28:19.967Z,8.86
2017-03-13T10:29:21.240Z,8.28
2017-03-13T10:30:22.517Z,8.86
2017-03-13T10:31:23.754Z,9.25
2017-03-13T10:32:25.064Z,9.35
2017-03-13T10:33:26.386Z,9.06
2017-03-13T10:34:27.627Z,9.45
2017-03-13T10:35:28.899Z,9.35
2017-03-13T10:36:30.164Z,9.15
2017-03-13T10:37:31.429Z,9.34
2017-03-13T10:38:32.693Z,9.81
2017-03-13T10:39:33.999Z,10.68
2017-03-13T10:40:35.259Z,11.16
2017-03-13T10:41:36.520Z,12.03
2017-03-13T10:42:37.780Z,12.22
2017-03-13T10:43:39.028Z,12.02
2017-03-13T10:44:40.291Z,12.31
2017-03-13T10:45:41.608Z,12.41
2017-03-13T10:46:42.871Z,12.5
2017-03-13T10:47:44.144Z,13.18
2017-03-13T10:48:45.396Z,13.56
2017-03-13T10:49:46.648Z,13.56
2017-03-13T10:50:47.901Z,14.04
2017-03-13T10:51:49.244Z,14.03
2017-03-13T10:52:50.604Z,14.99
2017-03-13T10:53:51.925Z,14.99
2017-03-13T10:54:53.208Z,15.09
2017-03-13T10:55:54.439Z,14.7
2017-03-13T10:56:55.703Z,14.6
2017-03-13T10:57:56.957Z,14.98
2017-03-13T10:58:58.212Z,15.27
2017-03-13T10:59:59.483Z,15.56
2017-03-13T11:01:00.745Z,15.94
2017-03-13T11:02:02.002Z,17.18
2017-03-13T11:03:03.366Z,18.23
2017-03-13T11:04:04.727Z,19.18
2017-03-13T11:05:05.977Z,19.95
2017-03-13T11:06:07.414Z,20.89
2017-03-13T11:07:08.658Z,21.65
2017-03-13T11:08:09.947Z,22.32
2017-03-13T11:09:11.202Z,23.37
2017-03-13T11:10:12.502Z,23.36
2017-03-13T11:11:13.782Z,24.79
2017-03-13T11:12:15.016Z,24.96
2017-03-13T11:13:16.315Z,26.03
2017-03-13T11:14:17.592Z,26.78
2017-03-13T11:15:18.822Z,27.16
2017-03-13T11:16:20.191Z,28.03
2017-03-13T11:17:21.462Z,28.2
2017-03-13T11:18:22.690Z,28.01
2017-03-13T11:19:23.946Z,28.59
2017-03-13T11:20:25.187Z,28.77
2017-03-13T11:21:26.596Z,30.11
2017-03-13T11:22:27.970Z,30.3
2017-03-13T11:23:29.147Z,29.72
2017-03-13T11:24:30.381Z,29.71
2017-03-13T11:25:31.624Z,31.15
2017-03-13T11:26:32.854Z,31.43
2017-03-13T11:27:34.115Z,31.24
2017-03-13T11:28:35.350Z,31.92
2017-03-13T11:29:36.647Z,32.01
2017-03-13T11:30:37.917Z,33.33
2017-03-13T11:31:39.201Z,32.86
2017-03-13T11:32:40.448Z,33.24
2017-03-13T11:33:41.694Z,33.33
2017-03-13T11:34:42.991Z,34.1
2017-03-13T11:35:44.228Z,34
2017-03-13T11:36:45.484Z,34.75
2017-03-13T11:37:46.753Z,34.75
2017-03-13T11:38:47.975Z,34.87
2017-03-13T11:39:49.223Z,34.18
2017-03-13T11:40:50.602Z,34.28
2017-03-13T11:41:51.885Z,34.28
2017-03-13T11:42:53.110Z,33.61
2017-03-13T11:43:54.350Z,34.18
2017-03-13T11:44:55.588Z,34.18
2017-03-13T11:45:56.834Z,34.28
2017-03-13T11:46:58.273Z,35.33
2017-03-13T11:47:59.520Z,36.19
2017-03-13T11:49:00.757Z,36.55
2017-03-13T11:50:02.005Z,36.36
2017-03-13T11:51:03.254Z,36.55
2017-03-13T11:52:04.522Z,36.75
2017-03-13T11:53:05.793Z,36.17
2017-03-13T11:54:07.041Z,36.19
2017-03-13T11:55:08.309Z,36.17
2017-03-13T11:56:09.556Z,35.52
2017-03-13T11:57:10.966Z,34.93
2017-03-13T11:58:12.397Z,35.24
2017-03-13T11:59:13.634Z,34.85
2017-03-13T12:00:15.040Z,35.61
2017-03-13T12:01:16.291Z,34.75
2017-03-13T12:02:17.513Z,34.74
2017-03-13T12:03:18.753Z,35.98
2017-03-13T12:04:20.007Z,35.98
2017-03-13T12:05:21.252Z,35.69
2017-03-13T12:06:22.479Z,35.5
2017-03-13T12:07:23.718Z,36.27
2017-03-13T12:08:24.995Z,36.08
2017-03-13T12:09:26.234Z,36.08
2017-03-13T12:10:27.588Z,35.69
2017-03-13T12:11:28.945Z,35.69
2017-03-13T12:12:30.198Z,36.17
2017-03-13T12:13:31.435Z,36.65
2017-03-13T12:14:32.674Z,36.65
2017-03-13T12:15:33.973Z,37.23
2017-03-13T12:16:35.260Z,37.51
2017-03-13T12:17:36.505Z,38.37
2017-03-13T12:18:37.788Z,38.18
2017-03-13T12:19:38.987Z,37.99
2017-03-13T12:20:40.240Z,37.7
2017-03-13T12:21:41.502Z,37.41
2017-03-13T12:22:42.946Z,37.99
2017-03-13T12:23:44.205Z,37.8
2017-03-13T12:24:45.424Z,37.32
2017-03-13T12:25:46.665Z,37.04
2017-03-13T12:26:47.916Z,37.32
2017-03-13T12:27:49.275Z,37.7
2017-03-13T12:28:50.549Z,38.28
2017-03-13T12:29:51.793Z,37.61
2017-03-13T12:30:53.090Z,37.32
2017-03-13T12:31:54.351Z,39.04
2017-03-13T12:32:55.578Z,38.28
2017-03-13T12:33:56.887Z,37.41
2017-03-13T12:34:58.183Z,37.8
2017-03-13T12:35:59.408Z,38.56
2017-03-13T12:37:00.693Z,38.09
2017-03-13T12:38:01.923Z,38.56
2017-03-13T12:39:03.187Z,38.66
2017-03-13T12:40:04.424Z,39.14
2017-03-13T12:41:05.677Z,40.19
2017-03-13T12:42:07.028Z,38.76
2017-03-13T12:43:08.310Z,38.28
2017-03-13T12:44:09.579Z,38.18
2017-03-13T12:45:10.832Z,38.85
2017-03-13T12:46:12.069Z,37.8
2017-03-13T12:47:13.316Z,37.41
2017-03-13T12:48:14.596Z,38.09
2017-03-13T12:49:15.841Z,37.99
2017-03-13T12:50:17.116Z,37.8
2017-03-13T12:51:18.356Z,38.18
2017-03-13T12:54:31.741Z,36.94
2017-03-13T12:55:32.980Z,37.23
2017-03-13T12:56:34.215Z,36.84
2017-03-13T12:57:35.468Z,37.23
2017-03-13T12:58:36.785Z,37.61
2017-03-13T12:59:38.058Z,38.28
2017-03-13T13:00:39.278Z,38.28
2017-03-13T13:01:40.525Z,38.18
2017-03-13T13:02:41.781Z,38.47
2017-03-13T13:03:43.072Z,38.09
2017-03-13T13:04:44.360Z,37.7
2017-03-13T13:05:45.642Z,37.9
2017-03-13T13:06:46.871Z,37.51
2017-03-13T13:07:48.102Z,37.41
2017-03-13T13:08:49.335Z,37.41
2017-03-13T13:09:50.578Z,37.41
2017-03-13T13:10:51.820Z,37.51
2017-03-13T13:11:53.073Z,37.9
2017-03-13T13:12:54.325Z,38.28
2017-03-13T13:13:55.574Z,37.61
2017-03-13T13:14:56.854Z,36.84